createdAt,value
2018-10-12T00:00:41.386Z,23.05
2018-10-12T00:03:10.790Z,26.93
2018-10-12T00:05:40.022Z,19.92
2018-10-12T00:08:08.857Z,25.15
2018-10-12T00:10:38.398Z,20.85
2018-10-12T00:13:07.462Z,29.50
2018-10-12T00:15:36.335Z,30.15
2018-10-12T00:18:05.323Z,23.50
2018-10-12T00:20:34.373Z,22.32
2018-10-12T00:23:03.341Z,23.62
2018-10-12T00:25:32.337Z,29.50
2018-10-12T00:28:01.402Z,27.50
2018-10-12T00:30:30.317Z,26.10
2018-10-12T00:32:59.394Z,25.55
2018-10-12T00:35:28.416Z,32.30
2018-10-12T00:37:57.270Z,23.77
2018-10-12T00:40:26.253Z,30.90
2018-10-12T00:42:55.610Z,23.60
2018-10-12T00:45:24.770Z,25.12
2018-10-12T00:48:00.224Z,23.02
2018-10-12T00:50:31.084Z,27.15
2018-10-12T00:53:00.611Z,27.90
2018-10-12T00:55:31.872Z,23.70
2018-10-12T00:58:00.791Z,29.52
2018-10-12T01:00:30.098Z,28.87
2018-10-12T01:02:59.245Z,24.65
2018-10-12T01:05:28.395Z,24.77
2018-10-12T01:07:57.472Z,21.60
2018-10-12T01:10:26.520Z,26.12
2018-10-12T01:12:55.412Z,21.12
2018-10-12T01:15:29.792Z,28.47
2018-10-12T01:18:03.260Z,26.97
2018-10-12T01:20:37.557Z,21.33
2018-10-12T01:23:18.625Z,22.70
2018-10-12T01:25:54.763Z,24.60
2018-10-12T01:28:28.383Z,21.25
2018-10-12T01:31:03.177Z,22.98
2018-10-12T01:33:38.350Z,23.30
2018-10-12T01:36:13.189Z,27.60
2018-10-12T01:38:48.754Z,23.55
2018-10-12T01:41:22.014Z,31.90
2018-10-12T01:43:56.859Z,27.40
2018-10-12T01:46:30.648Z,28.10
2018-10-12T01:49:11.825Z,26.65
2018-10-12T01:51:45.540Z,28.70
2018-10-12T01:54:20.129Z,26.87
2018-10-12T01:56:56.529Z,28.57
2018-10-12T01:59:30.520Z,26.48
2018-10-12T02:02:04.271Z,27.45
2018-10-12T02:04:40.018Z,30.00
2018-10-12T02:07:15.431Z,25.52
2018-10-12T02:09:50.190Z,26.70
2018-10-12T02:12:25.033Z,23.18
2018-10-12T02:14:59.313Z,22.05
2018-10-12T02:17:35.793Z,22.17
2018-10-12T02:20:10.488Z,29.95
2018-10-12T02:22:44.796Z,27.22
2018-10-12T02:25:19.533Z,18.87
2018-10-12T02:27:52.661Z,20.95
2018-10-12T02:30:27.405Z,21.25
2018-10-12T02:33:01.549Z,21.45
2018-10-12T02:35:35.739Z,26.97
2018-10-12T02:38:09.725Z,23.10
2018-10-12T02:40:44.072Z,20.10
2018-10-12T02:43:17.196Z,22.67
2018-10-12T02:45:53.280Z,22.25
2018-10-12T02:48:39.095Z,18.20
2018-10-12T02:51:12.411Z,22.70
2018-10-12T02:53:46.635Z,27.32
2018-10-12T02:56:25.027Z,22.00
2018-10-12T02:59:00.000Z,21.00
2018-10-12T03:01:33.551Z,21.33
2018-10-12T03:04:11.040Z,21.42
2018-10-12T03:06:44.806Z,19.95
2018-10-12T03:09:20.034Z,20.37
2018-10-12T03:11:52.766Z,22.55
2018-10-12T03:14:29.260Z,24.32
2018-10-12T03:17:01.930Z,23.80
2018-10-12T03:19:34.823Z,23.62
2018-10-12T03:22:07.495Z,29.60
2018-10-12T03:24:40.779Z,30.05
2018-10-12T03:27:14.609Z,28.57
2018-10-12T03:29:48.152Z,24.52
2018-10-12T03:32:22.354Z,23.90
2018-10-12T03:34:55.825Z,32.42
2018-10-12T03:37:29.864Z,22.17
2018-10-12T03:40:04.487Z,24.95
2018-10-12T03:42:37.451Z,27.52
2018-10-12T03:45:11.224Z,21.10
2018-10-12T03:47:47.089Z,21.80
2018-10-12T03:50:21.339Z,25.85
2018-10-12T03:52:56.170Z,23.92
2018-10-12T03:55:32.045Z,26.48
2018-10-12T03:58:06.826Z,21.95
2018-10-12T04:00:41.219Z,26.15
2018-10-12T04:03:14.488Z,26.33
2018-10-12T04:05:49.155Z,27.62
2018-10-12T04:08:22.271Z,25.12
2018-10-12T04:10:55.759Z,22.70
2018-10-12T04:13:28.749Z,27.00
2018-10-12T04:16:02.293Z,24.90
2018-10-12T04:18:35.497Z,29.82
2018-10-12T04:21:08.626Z,35.45
2018-10-12T04:23:43.005Z,27.50
2018-10-12T04:26:16.611Z,33.75
2018-10-12T04:28:50.450Z,36.30
2018-10-12T04:31:23.680Z,30.23
2018-10-12T04:33:56.860Z,32.60
2018-10-12T04:36:30.489Z,33.30
2018-10-12T04:39:12.744Z,33.42
2018-10-12T04:41:46.480Z,38.40
2018-10-12T04:44:21.253Z,42.50
2018-10-12T04:46:55.563Z,33.73
2018-10-12T04:49:29.972Z,42.00
2018-10-12T04:52:04.512Z,27.13
2018-10-12T04:54:38.907Z,30.35
2018-10-12T04:57:12.521Z,39.05
2018-10-12T04:59:46.223Z,26.05
2018-10-12T05:02:21.205Z,31.77
2018-10-12T05:04:54.691Z,26.87
2018-10-12T05:07:28.941Z,34.83
2018-10-12T05:10:03.022Z,26.95
2018-10-12T05:12:34.343Z,33.02
2018-10-12T05:15:05.845Z,25.52
2018-10-12T05:17:38.502Z,33.70
2018-10-12T05:20:12.614Z,27.70
2018-10-12T05:22:45.639Z,28.50
2018-10-12T05:25:19.092Z,26.77
2018-10-12T05:27:51.688Z,24.23
2018-10-12T05:30:25.559Z,22.37
2018-10-12T05:33:00.067Z,25.40
2018-10-12T05:35:34.155Z,38.83
2018-10-12T05:38:08.947Z,36.63
2018-10-12T05:40:41.755Z,27.85
2018-10-12T05:43:15.073Z,25.48
2018-10-12T05:45:49.392Z,29.90
2018-10-12T05:48:30.618Z,24.52
2018-10-12T05:51:02.619Z,27.15
2018-10-12T05:53:36.523Z,27.60
2018-10-12T05:56:06.825Z,27.98
2018-10-12T05:58:36.401Z,32.38
2018-10-12T06:01:05.784Z,39.78
2018-10-12T06:03:35.146Z,26.40
2018-10-12T06:06:04.321Z,36.68
2018-10-12T06:08:33.303Z,29.57
2018-10-12T06:11:02.294Z,29.37
2018-10-12T06:13:31.293Z,26.70
2018-10-12T06:16:00.177Z,25.90
2018-10-12T06:18:29.206Z,27.60
2018-10-12T06:20:58.241Z,30.25
2018-10-12T06:23:27.320Z,34.15
2018-10-12T06:25:56.481Z,44.03
2018-10-12T06:28:25.603Z,35.15
2018-10-12T06:30:54.791Z,36.68
2018-10-12T06:33:24.042Z,35.90
2018-10-12T06:35:53.391Z,35.00
2018-10-12T06:38:22.896Z,28.92
2018-10-12T06:40:55.000Z,35.65
2018-10-12T06:43:25.378Z,31.23
2018-10-12T06:45:55.471Z,30.82
2018-10-12T06:48:24.994Z,31.07
2018-10-12T06:50:56.993Z,35.15
2018-10-12T06:53:26.191Z,57.73
2018-10-12T06:55:58.780Z,30.20
2018-10-12T06:58:28.340Z,37.38
2018-10-12T07:00:57.360Z,35.95
2018-10-12T07:03:27.235Z,38.98
2018-10-12T07:05:56.679Z,37.55
2018-10-12T07:08:25.835Z,36.48
2018-10-12T07:10:54.731Z,39.80
2018-10-12T07:13:23.575Z,35.50
2018-10-12T07:15:52.872Z,43.78
2018-10-12T07:18:21.685Z,46.95
2018-10-12T07:20:50.753Z,35.60
2018-10-12T07:23:19.859Z,41.28
2018-10-12T07:25:49.013Z,45.20
2018-10-12T07:28:18.482Z,61.20
2018-10-12T07:30:47.512Z,63.30
2018-10-12T07:33:16.390Z,56.48
2018-10-12T07:35:46.662Z,59.20
2018-10-12T07:38:16.880Z,63.00
2018-10-12T07:40:45.269Z,52.15
2018-10-12T07:43:15.726Z,49.40
2018-10-12T07:45:45.103Z,53.45
2018-10-12T07:48:14.825Z,51.40
2018-10-12T07:50:44.018Z,41.45
2018-10-12T07:53:12.968Z,59.55
2018-10-12T07:55:42.104Z,43.35
2018-10-12T07:58:11.877Z,45.10
2018-10-12T08:00:41.300Z,44.10
2018-10-12T08:03:10.460Z,40.15
2018-10-12T08:05:42.352Z,48.75
2018-10-12T08:08:13.405Z,40.08
2018-10-12T08:10:46.850Z,40.58
2018-10-12T08:13:16.094Z,49.55
2018-10-12T08:15:45.348Z,39.25
2018-10-12T08:18:14.794Z,55.55
2018-10-12T08:20:44.078Z,50.85
2018-10-12T08:23:13.532Z,44.27
2018-10-12T08:25:42.538Z,52.73
2018-10-12T08:28:11.890Z,48.43
2018-10-12T08:30:41.120Z,53.33
2018-10-12T08:33:10.191Z,33.57
2018-10-12T08:35:39.156Z,33.70
2018-10-12T08:38:08.793Z,59.33
2018-10-12T08:40:37.846Z,37.03
2018-10-12T08:43:07.252Z,39.13
2018-10-12T08:45:37.048Z,27.87
2018-10-12T08:48:07.091Z,28.40
2018-10-12T08:50:37.306Z,27.23
2018-10-12T08:53:07.730Z,27.73
2018-10-12T08:55:37.862Z,22.77
2018-10-12T08:58:08.842Z,22.23
2018-10-12T09:00:40.171Z,19.63
2018-10-12T09:03:13.863Z,30.53
2018-10-12T09:05:45.828Z,25.93
2018-10-12T09:08:17.375Z,21.63
2018-10-12T09:10:46.591Z,33.70
2018-10-12T09:13:15.678Z,26.20
2018-10-12T09:15:44.871Z,40.07
2018-10-12T09:18:14.065Z,45.73
2018-10-12T09:20:43.512Z,45.47
2018-10-12T09:23:12.704Z,43.23
2018-10-12T09:25:45.236Z,40.50
2018-10-12T09:28:20.072Z,37.83
2018-10-12T09:30:55.525Z,38.27
2018-10-12T09:33:28.196Z,36.20
2018-10-12T09:36:00.542Z,37.43
2018-10-12T09:38:31.996Z,40.13
2018-10-12T09:41:00.918Z,38.00
2018-10-12T09:43:30.149Z,36.37
2018-10-12T09:46:10.502Z,21.90
2018-10-12T09:48:39.590Z,34.67
2018-10-12T09:51:08.493Z,21.03
2018-10-12T09:53:37.793Z,18.70
2018-10-12T09:56:06.591Z,35.73
2018-10-12T09:58:40.967Z,24.37
2018-10-12T10:01:16.848Z,25.27
2018-10-12T10:03:53.012Z,15.93
2018-10-12T10:06:23.943Z,25.87
2018-10-12T10:11:38.602Z,23.23
2018-10-12T10:14:09.487Z,11.37
2018-10-12T10:16:38.448Z,9.63
2018-10-12T10:19:07.531Z,13.20
2018-10-12T10:21:41.949Z,9.80
2018-10-12T10:24:11.252Z,7.13
2018-10-12T10:26:40.426Z,10.60
2018-10-12T10:29:09.426Z,5.13
2018-10-12T10:31:38.679Z,12.97
2018-10-12T10:34:08.397Z,5.60
2018-10-12T10:36:37.225Z,5.57
2018-10-12T10:39:08.466Z,3.53
2018-10-12T10:41:37.521Z,3.33
2018-10-12T10:44:06.593Z,6.30
2018-10-12T10:46:35.644Z,6.50
2018-10-12T10:49:04.506Z,4.43
2018-10-12T10:51:33.498Z,7.00
2018-10-12T10:54:02.505Z,5.93
2018-10-12T10:56:31.608Z,14.53
2018-10-12T10:59:00.427Z,7.80
2018-10-12T11:01:29.500Z,4.73
2018-10-12T11:03:58.419Z,5.70
2018-10-12T11:06:27.343Z,8.93
2018-10-12T11:08:56.221Z,4.73
2018-10-12T11:11:24.992Z,4.77
2018-10-12T11:13:53.986Z,5.00
2018-10-12T11:16:22.887Z,4.30
2018-10-12T11:18:51.857Z,12.23
2018-10-12T11:21:20.641Z,3.40
2018-10-12T11:23:53.327Z,5.13
2018-10-12T11:26:26.839Z,5.00
2018-10-12T11:28:58.423Z,6.63
2018-10-12T11:31:31.119Z,3.23
2018-10-12T11:34:02.470Z,10.40
2018-10-12T11:36:34.456Z,4.60
2018-10-12T11:39:05.580Z,6.80
2018-10-12T11:41:36.150Z,3.03
2018-10-12T11:44:08.515Z,3.10
2018-10-12T11:46:40.421Z,6.10
2018-10-12T11:49:11.419Z,6.67
2018-10-12T11:51:42.833Z,9.13
2018-10-12T11:54:14.895Z,3.50
2018-10-12T11:56:43.840Z,5.73
2018-10-12T11:59:12.902Z,7.10
2018-10-12T12:01:41.660Z,8.70
2018-10-12T12:04:10.477Z,4.00
2018-10-12T12:06:39.362Z,3.33
2018-10-12T12:09:08.056Z,7.33
2018-10-12T12:11:37.184Z,6.00
2018-10-12T12:14:23.331Z,6.67
2018-10-12T12:16:53.121Z,4.90
2018-10-12T12:19:21.922Z,6.60
2018-10-12T12:21:50.917Z,4.83
2018-10-12T12:24:19.760Z,3.67
2018-10-12T12:26:48.579Z,9.70
2018-10-12T12:29:21.937Z,4.10
2018-10-12T12:31:53.448Z,5.73
2018-10-12T12:34:24.222Z,5.23
2018-10-12T12:36:56.025Z,6.77
2018-10-12T12:39:26.639Z,7.53
2018-10-12T12:41:58.446Z,10.83
2018-10-12T12:44:31.231Z,7.40
2018-10-12T12:47:02.899Z,10.03
2018-10-12T12:49:31.858Z,5.90
2018-10-12T12:52:00.453Z,5.63
2018-10-12T12:54:29.310Z,4.90
2018-10-12T12:56:58.347Z,4.47
2018-10-12T12:59:27.196Z,5.87
2018-10-12T13:01:56.194Z,6.30
2018-10-12T13:04:25.218Z,3.70
2018-10-12T13:06:54.253Z,4.77
2018-10-12T13:09:24.361Z,4.57
2018-10-12T13:11:53.218Z,8.47
2018-10-12T13:14:22.035Z,5.53
2018-10-12T13:16:50.815Z,4.13
2018-10-12T13:19:23.634Z,6.53
2018-10-12T13:21:52.684Z,8.10
2018-10-12T13:24:22.092Z,12.80
2018-10-12T13:26:51.225Z,2.27
2018-10-12T13:29:20.483Z,4.30
2018-10-12T13:31:49.593Z,4.70
2018-10-12T13:34:18.747Z,3.10
2018-10-12T13:36:47.771Z,4.10
2018-10-12T13:39:16.590Z,5.53
2018-10-12T13:41:45.737Z,6.97
2018-10-12T13:44:14.658Z,7.60
2018-10-12T13:46:43.978Z,3.03
2018-10-12T13:49:12.934Z,5.67
2018-10-12T13:51:41.784Z,5.20
2018-10-12T13:54:10.861Z,5.03
2018-10-12T13:56:39.642Z,5.00
2018-10-12T13:59:08.647Z,8.10
2018-10-12T14:01:37.528Z,4.13
2018-10-12T14:04:06.343Z,3.87
2018-10-12T14:06:35.372Z,3.97
2018-10-12T14:09:05.307Z,10.73
2018-10-12T14:11:34.178Z,4.90
2018-10-12T14:14:02.962Z,5.20
2018-10-12T14:16:31.781Z,2.43
2018-10-12T14:19:00.756Z,2.43
2018-10-12T14:21:29.271Z,5.20
2018-10-12T14:23:58.287Z,9.37
2018-10-12T14:26:46.301Z,2.60
2018-10-12T14:29:16.381Z,7.13
2018-10-12T14:31:45.665Z,2.20
2018-10-12T14:34:14.858Z,5.50
2018-10-12T14:36:43.667Z,4.40
2018-10-12T14:39:12.475Z,11.60
2018-10-12T14:41:41.241Z,5.43
2018-10-12T14:44:10.105Z,3.53
2018-10-12T14:46:39.182Z,4.30
2018-10-12T14:49:08.173Z,5.00
2018-10-12T14:51:37.303Z,2.17
2018-10-12T14:54:06.090Z,3.67
2018-10-12T14:56:35.118Z,9.03
2018-10-12T14:59:04.322Z,4.47
2018-10-12T15:01:33.373Z,5.37
2018-10-12T15:04:02.079Z,6.83
2018-10-12T15:06:31.594Z,2.80
2018-10-12T15:09:00.378Z,8.17
2018-10-12T15:11:29.380Z,20.53
2018-10-12T15:13:58.189Z,4.93
2018-10-12T15:16:26.883Z,2.30
2018-10-12T15:18:55.776Z,5.90
2018-10-12T15:21:24.886Z,9.03
2018-10-12T15:23:53.763Z,3.53
2018-10-12T15:26:22.683Z,5.53
2018-10-12T15:28:51.531Z,10.40
2018-10-12T15:31:20.401Z,8.03
2018-10-12T15:33:49.842Z,5.00
2018-10-12T15:36:18.842Z,8.13
2018-10-12T15:38:47.850Z,13.93
2018-10-12T15:41:16.666Z,7.30
2018-10-12T15:43:45.664Z,8.57
2018-10-12T15:46:14.575Z,7.37
2018-10-12T15:48:43.596Z,4.10
2018-10-12T15:51:12.621Z,12.40
2018-10-12T15:53:41.508Z,9.27
2018-10-12T15:56:10.535Z,5.47
2018-10-12T15:58:39.242Z,6.80
2018-10-12T16:01:08.674Z,16.10
2018-10-12T16:03:37.512Z,10.20
2018-10-12T16:06:06.372Z,9.00
2018-10-12T16:08:35.332Z,19.57
2018-10-12T16:11:04.228Z,4.60
2018-10-12T16:13:33.273Z,6.53
2018-10-12T16:16:02.579Z,14.57
2018-10-12T16:18:31.550Z,18.03
2018-10-12T16:21:00.472Z,18.77
2018-10-12T16:23:29.601Z,19.03
2018-10-12T16:26:12.304Z,21.17
2018-10-12T16:28:42.016Z,19.13
2018-10-12T16:31:10.939Z,18.03
2018-10-12T16:33:40.264Z,18.37
2018-10-12T16:36:09.524Z,14.33
2018-10-12T16:38:38.564Z,18.17
2018-10-12T16:41:07.814Z,21.20
2018-10-12T16:43:37.982Z,18.30
2018-10-12T16:46:06.886Z,19.80
2018-10-12T16:48:35.823Z,16.73
2018-10-12T16:51:04.546Z,12.17
2018-10-12T16:53:33.471Z,22.50
2018-10-12T16:56:02.274Z,14.70
2018-10-12T16:58:31.174Z,16.23
2018-10-12T17:01:00.055Z,9.53
2018-10-12T17:03:28.884Z,10.40
2018-10-12T17:05:57.835Z,8.50
2018-10-12T17:08:26.610Z,13.63
2018-10-12T17:10:55.545Z,4.40
2018-10-12T17:13:24.404Z,13.50
2018-10-12T17:15:53.221Z,5.30
2018-10-12T17:18:22.076Z,10.37
2018-10-12T17:20:50.959Z,12.50
2018-10-12T17:23:19.979Z,8.70
2018-10-12T17:25:48.827Z,10.00
2018-10-12T17:28:17.714Z,10.20
2018-10-12T17:30:46.505Z,10.77
2018-10-12T17:33:15.315Z,6.50
2018-10-12T17:35:44.267Z,11.90
2018-10-12T17:38:13.073Z,5.67
2018-10-12T17:40:42.006Z,8.37
2018-10-12T17:43:10.854Z,6.37
2018-10-12T17:45:39.709Z,31.77
2018-10-12T17:48:08.448Z,10.03
2018-10-12T17:50:37.227Z,7.03
2018-10-12T17:53:06.377Z,7.10
2018-10-12T17:55:35.301Z,5.13
2018-10-12T17:58:04.238Z,9.57
2018-10-12T18:00:33.201Z,8.40
2018-10-12T18:03:06.327Z,13.73
2018-10-12T18:05:35.305Z,8.57
2018-10-12T18:08:04.167Z,6.73
2018-10-12T18:10:33.091Z,9.03
2018-10-12T18:13:01.938Z,15.13
2018-10-12T18:15:30.926Z,10.17
2018-10-12T18:17:59.918Z,11.67
2018-10-12T18:20:28.665Z,14.53
2018-10-12T18:22:57.433Z,12.43
2018-10-12T18:25:26.403Z,9.10
2018-10-12T18:27:55.342Z,6.00
2018-10-12T18:30:24.201Z,8.70
2018-10-12T18:32:53.151Z,8.43
2018-10-12T18:35:21.926Z,12.97
2018-10-12T18:37:50.886Z,6.03
2018-10-12T18:40:19.685Z,10.00
2018-10-12T18:42:48.602Z,14.73
2018-10-12T18:45:18.073Z,10.97
2018-10-12T18:47:46.996Z,8.07
2018-10-12T18:50:15.846Z,7.00
2018-10-12T18:52:44.714Z,9.43
2018-10-12T18:55:13.701Z,11.10
2018-10-12T18:57:42.522Z,10.80
2018-10-12T19:00:11.781Z,7.10
2018-10-12T19:02:40.705Z,7.60
2018-10-12T19:05:09.787Z,15.30
2018-10-12T19:07:38.621Z,11.00
2018-10-12T19:10:07.551Z,8.30
2018-10-12T19:12:36.457Z,14.17
2018-10-12T19:15:05.505Z,6.97
2018-10-12T19:17:34.564Z,9.43
2018-10-12T19:20:03.604Z,11.67
2018-10-12T19:22:32.477Z,9.77
2018-10-12T19:25:01.339Z,10.17
2018-10-12T19:27:30.219Z,17.47
2018-10-12T19:29:59.036Z,7.50
2018-10-12T19:32:27.943Z,11.57
2018-10-12T19:34:57.042Z,16.03
2018-10-12T19:37:26.158Z,29.00
2018-10-12T19:39:54.916Z,9.30
2018-10-12T19:42:23.883Z,21.33
2018-10-12T19:44:53.218Z,22.83
2018-10-12T19:47:22.130Z,19.70
2018-10-12T19:49:51.005Z,13.87
2018-10-12T19:52:19.884Z,11.57
2018-10-12T19:54:48.686Z,9.30
2018-10-12T19:57:17.717Z,14.50
2018-10-12T19:59:46.687Z,19.87
2018-10-12T20:02:15.668Z,19.03
2018-10-12T20:04:50.040Z,23.00
2018-10-12T20:07:22.179Z,10.33
2018-10-12T20:09:51.116Z,13.93
2018-10-12T20:12:20.030Z,13.63
2018-10-12T20:14:48.992Z,8.00
2018-10-12T20:17:17.753Z,13.27
2018-10-12T20:19:46.560Z,13.40
2018-10-12T20:22:15.392Z,7.40
2018-10-12T20:24:44.410Z,9.83
2018-10-12T20:27:13.312Z,8.50
2018-10-12T20:29:42.412Z,9.73
2018-10-12T20:32:11.431Z,10.60
2018-10-12T20:34:40.300Z,18.47
2018-10-12T20:37:09.201Z,15.33
2018-10-12T20:39:38.349Z,13.73
2018-10-12T20:42:07.511Z,13.07
2018-10-12T20:44:36.570Z,8.65
2018-10-12T20:47:05.865Z,17.43
2018-10-12T20:49:34.875Z,11.13
2018-10-12T20:52:03.831Z,12.90
2018-10-12T20:54:32.810Z,14.77
2018-10-12T20:57:01.902Z,12.63
2018-10-12T20:59:30.922Z,13.10
2018-10-12T21:01:59.981Z,13.27
2018-10-12T21:04:28.874Z,11.93
2018-10-12T21:06:57.765Z,11.80
2018-10-12T21:09:26.786Z,14.67
2018-10-12T21:11:55.621Z,12.67
2018-10-12T21:14:24.539Z,19.92
2018-10-12T21:16:53.482Z,17.73
2018-10-12T21:19:22.270Z,13.58
2018-10-12T21:21:51.411Z,19.57
2018-10-12T21:24:20.246Z,10.85
2018-10-12T21:26:49.169Z,11.22
2018-10-12T21:29:18.319Z,11.57
2018-10-12T21:31:47.140Z,12.00
2018-10-12T21:34:16.022Z,15.00
2018-10-12T21:36:44.803Z,16.57
2018-10-12T21:39:13.756Z,14.80
2018-10-12T21:41:42.746Z,16.95
2018-10-12T21:44:11.665Z,13.35
2018-10-12T21:46:40.709Z,20.72
2018-10-12T21:49:09.791Z,22.75
2018-10-12T21:51:38.722Z,36.93
2018-10-12T21:54:07.773Z,16.77
2018-10-12T21:56:36.608Z,13.38
2018-10-12T21:59:05.601Z,23.02
2018-10-12T22:01:34.354Z,11.80
2018-10-12T22:04:03.347Z,20.57
2018-10-12T22:06:32.345Z,11.38
2018-10-12T22:09:05.626Z,13.53
2018-10-12T22:11:34.664Z,24.10
2018-10-12T22:14:03.963Z,16.27
2018-10-12T22:16:32.731Z,10.98
2018-10-12T22:19:01.828Z,9.68
2018-10-12T22:21:30.768Z,15.13
2018-10-12T22:23:59.850Z,8.60
2018-10-12T22:26:28.923Z,17.37
2018-10-12T22:28:57.646Z,9.73
2018-10-12T22:31:26.559Z,6.20
2018-10-12T22:33:55.532Z,8.08
2018-10-12T22:36:24.379Z,7.22
2018-10-12T22:38:53.585Z,8.63
2018-10-12T22:41:22.436Z,6.50
2018-10-12T22:43:51.477Z,6.25
2018-10-12T22:46:20.288Z,11.97
2018-10-12T22:48:49.368Z,29.57
2018-10-12T22:51:18.217Z,12.68
2018-10-12T22:53:47.070Z,18.65
2018-10-12T22:56:16.097Z,17.15
2018-10-12T22:58:45.014Z,7.25
2018-10-12T23:01:13.983Z,11.80
2018-10-12T23:03:42.907Z,8.63
2018-10-12T23:06:11.952Z,10.15
2018-10-12T23:08:40.901Z,7.17
2018-10-12T23:11:09.973Z,10.68
2018-10-12T23:13:38.987Z,9.05
2018-10-12T23:16:08.108Z,12.10
2018-10-12T23:18:37.006Z,8.83
2018-10-12T23:21:05.996Z,7.25
2018-10-12T23:23:34.862Z,10.50
2018-10-12T23:26:03.861Z,9.03
2018-10-12T23:28:32.745Z,9.18
2018-10-12T23:31:01.664Z,10.90
2018-10-12T23:33:41.393Z,16.27
2018-10-12T23:36:10.268Z,8.93
2018-10-12T23:38:39.277Z,7.92
2018-10-12T23:41:08.387Z,9.85
2018-10-12T23:43:37.281Z,18.10
2018-10-12T23:46:06.185Z,10.65
2018-10-12T23:48:35.121Z,12.88
2018-10-12T23:51:04.024Z,15.03
2018-10-12T23:53:33.026Z,6.78
2018-10-12T23:56:01.973Z,15.98
2018-10-12T23:58:30.921Z,11.73
